createdAt,value
2022-10-24T00:00:12.188Z,99988.66
2022-10-24T00:02:57.592Z,99986.91
2022-10-24T00:05:45.349Z,99979.94
2022-10-24T00:08:30.729Z,99982.59
2022-10-24T00:11:19.361Z,99981.81
2022-10-24T00:14:04.579Z,99987.06
2022-10-24T00:16:49.507Z,99990.53
2022-10-24T00:19:35.034Z,100000.13
2022-10-24T00:22:20.834Z,99992.38
2022-10-24T00:25:06.753Z,99982.88
2022-10-24T00:27:51.920Z,99998.50
2022-10-24T00:30:36.874Z,100001.19
2022-10-24T00:33:22.232Z,100002.91
2022-10-24T00:36:14.543Z,99998.59
2022-10-24T00:38:59.378Z,99993.41
2022-10-24T00:41:44.337Z,99991.66
2022-10-24T00:44:32.628Z,99986.47
2022-10-24T00:47:20.365Z,99979.56
2022-10-24T00:50:14.082Z,99978.69
2022-10-24T00:52:59.354Z,99967.44
2022-10-24T00:55:48.000Z,99970.03
2022-10-24T00:58:37.432Z,99974.31
2022-10-24T01:01:24.206Z,99969.97
2022-10-24T01:04:13.077Z,99966.47
2022-10-24T01:07:08.062Z,99961.22
2022-10-24T01:10:07.715Z,99958.63
2022-10-24T01:13:19.573Z,99950.75
2022-10-24T01:16:12.318Z,99947.25
2022-10-24T01:19:11.739Z,99927.25
2022-10-24T01:22:01.135Z,99932.47
2022-10-24T01:25:04.932Z,99929.00
2022-10-24T01:28:12.974Z,99923.00
2022-10-24T01:31:27.466Z,99929.06
2022-10-24T01:34:25.118Z,99922.19
2022-10-24T01:37:19.859Z,99914.50
2022-10-24T01:40:32.164Z,99935.28
2022-10-24T01:43:22.098Z,99920.38
2022-10-24T01:46:12.886Z,99901.31
2022-10-24T01:49:07.315Z,99908.31
2022-10-24T01:51:57.090Z,99911.88
2022-10-24T01:54:44.627Z,99896.31
2022-10-24T01:57:32.321Z,99894.56
2022-10-24T02:00:20.634Z,99899.75
2022-10-24T02:03:13.418Z,99903.19
2022-10-24T02:06:28.359Z,99881.50
2022-10-24T02:09:17.426Z,99884.09
2022-10-24T02:12:03.278Z,99878.00
2022-10-24T02:14:57.742Z,99876.25
2022-10-24T02:17:43.083Z,99868.50
2022-10-24T02:20:34.040Z,99872.88
2022-10-24T02:23:30.931Z,99874.69
2022-10-24T02:26:42.654Z,99868.66
2022-10-24T02:29:31.535Z,99869.53
2022-10-24T02:32:25.138Z,99858.22
2022-10-24T02:35:12.828Z,99859.09
2022-10-24T02:38:04.346Z,99850.34
2022-10-24T02:40:52.107Z,99848.66
2022-10-24T02:43:40.622Z,99852.28
2022-10-24T02:46:27.003Z,99857.53
2022-10-24T02:49:13.043Z,99853.22
2022-10-24T02:51:58.981Z,99844.56
2022-10-24T02:54:44.397Z,99847.22
2022-10-24T02:57:29.132Z,99847.25
2022-10-24T03:00:14.599Z,99838.59
2022-10-24T03:02:59.981Z,99839.56
2022-10-24T03:05:44.728Z,99847.47
2022-10-24T03:08:30.050Z,99850.06
2022-10-24T03:11:15.097Z,99845.69
2022-10-24T03:14:00.889Z,99844.00
2022-10-24T03:16:46.175Z,99845.75
2022-10-24T03:19:31.467Z,99850.84
2022-10-24T03:22:16.322Z,99845.56
2022-10-24T03:25:01.827Z,99844.66
2022-10-24T03:27:47.292Z,99855.88
2022-10-24T03:30:32.561Z,99840.16
2022-10-24T03:33:17.638Z,99844.53
2022-10-24T03:36:02.881Z,99840.25
2022-10-24T03:38:48.014Z,99839.34
2022-10-24T03:41:32.821Z,99839.38
2022-10-24T03:44:17.735Z,99839.38
2022-10-24T03:47:02.642Z,99837.63
2022-10-24T03:49:47.706Z,99833.41
2022-10-24T03:52:32.808Z,99845.59
2022-10-24T03:55:18.258Z,99842.91
2022-10-24T03:58:03.737Z,99846.38
2022-10-24T04:00:49.102Z,99840.31
2022-10-24T04:03:34.278Z,99842.91
2022-10-24T04:06:19.258Z,99835.13
2022-10-24T04:09:04.675Z,99840.31
2022-10-24T04:11:49.788Z,99849.84
2022-10-24T04:14:35.225Z,99832.50
2022-10-24T04:17:20.327Z,99836.91
2022-10-24T04:20:06.594Z,99836.91
2022-10-24T04:22:51.559Z,99839.53
2022-10-24T04:25:36.954Z,99849.00
2022-10-24T04:28:21.890Z,99851.63
2022-10-24T04:31:07.202Z,99854.22
2022-10-24T04:33:52.398Z,99851.88
2022-10-24T04:36:37.485Z,99855.31
2022-10-24T04:39:22.200Z,99865.75
2022-10-24T04:42:07.015Z,99862.38
2022-10-24T04:44:52.514Z,99858.94
2022-10-24T04:47:37.426Z,99854.63
2022-10-24T04:50:23.546Z,99861.59
2022-10-24T04:53:09.087Z,99867.69
2022-10-24T04:55:54.131Z,99869.44
2022-10-24T04:58:39.398Z,99877.25
2022-10-24T05:01:24.410Z,99865.97
2022-10-24T05:04:09.907Z,99863.31
2022-10-24T05:06:54.833Z,99856.38
2022-10-24T05:09:39.921Z,99851.03
2022-10-24T05:12:24.769Z,99846.47
2022-10-24T05:15:11.154Z,99828.09
2022-10-24T05:17:57.330Z,99820.91
2022-10-24T05:20:42.499Z,99799.91
2022-10-24T05:23:27.826Z,99785.00
2022-10-24T05:26:12.771Z,99788.41
2022-10-24T05:28:58.022Z,99778.75
2022-10-24T05:31:43.395Z,99774.34
2022-10-24T05:34:28.322Z,99766.50
2022-10-24T05:37:14.104Z,99765.63
2022-10-24T05:39:59.005Z,99769.06
2022-10-24T05:42:44.307Z,99765.69
2022-10-24T05:45:29.645Z,99763.06
2022-10-24T05:48:16.224Z,99767.25
2022-10-24T05:51:01.323Z,99767.16
2022-10-24T05:53:46.392Z,99764.44
2022-10-24T05:56:31.810Z,99756.53
2022-10-24T05:59:16.754Z,99768.69
2022-10-24T06:02:02.311Z,99764.34
2022-10-24T06:04:48.161Z,99760.03
2022-10-24T06:07:33.764Z,99766.16
2022-10-24T06:10:19.047Z,99770.56
2022-10-24T06:13:04.168Z,99768.81
2022-10-24T06:15:49.181Z,99766.94
2022-10-24T06:18:35.364Z,99772.09
2022-10-24T06:21:20.641Z,99767.72
2022-10-24T06:24:05.497Z,99776.47
2022-10-24T06:26:50.547Z,99768.59
2022-10-24T06:29:36.404Z,99767.69
2022-10-24T06:32:21.335Z,99790.22
2022-10-24T06:35:07.429Z,99779.75
2022-10-24T06:37:52.574Z,99788.34
2022-10-24T06:40:38.051Z,99787.38
2022-10-24T06:43:23.678Z,99793.41
2022-10-24T06:46:10.781Z,99797.59
2022-10-24T06:48:56.039Z,99797.59
2022-10-24T06:51:41.591Z,99803.81
2022-10-24T06:54:30.079Z,99810.72
2022-10-24T06:57:15.676Z,99810.69
2022-10-24T07:00:00.674Z,99815.16
2022-10-24T07:02:48.310Z,99826.44
2022-10-24T07:05:33.469Z,99825.56
2022-10-24T07:08:18.310Z,99826.44
2022-10-24T07:11:03.853Z,99829.72
2022-10-24T07:13:49.173Z,99833.16
2022-10-24T07:16:34.228Z,99833.97
2022-10-24T07:19:19.165Z,99839.13
2022-10-24T07:22:04.176Z,99832.13
2022-10-24T07:24:55.758Z,99839.88
2022-10-24T07:27:41.048Z,99836.31
2022-10-24T07:30:26.083Z,99836.19
2022-10-24T07:33:11.633Z,99830.78
2022-10-24T07:35:56.636Z,99816.81
2022-10-24T07:38:41.855Z,99812.34
2022-10-24T07:41:29.609Z,99826.16
2022-10-24T07:44:15.065Z,99840.81
2022-10-24T07:47:00.461Z,99826.94
2022-10-24T07:49:45.836Z,99818.91
2022-10-24T07:52:31.354Z,99820.47
2022-10-24T07:55:16.783Z,99827.44
2022-10-24T07:58:02.253Z,99812.44
2022-10-24T08:00:47.222Z,99817.50
2022-10-24T08:03:32.172Z,99799.94
2022-10-24T08:06:21.305Z,99819.16
2022-10-24T08:09:06.338Z,99810.31
2022-10-24T08:11:51.417Z,99800.63
2022-10-24T08:14:41.021Z,99794.34
2022-10-24T08:17:26.304Z,99795.91
2022-10-24T08:20:11.773Z,99800.88
2022-10-24T08:22:56.739Z,99768.28
2022-10-24T08:25:41.590Z,99768.72
2022-10-24T08:28:26.427Z,99779.75
2022-10-24T08:31:17.156Z,99743.66
2022-10-24T08:34:02.291Z,99778.38
2022-10-24T08:36:49.049Z,99737.22
2022-10-24T08:39:35.700Z,99723.97
2022-10-24T08:42:23.368Z,99736.00
2022-10-24T08:45:17.024Z,99760.44
2022-10-24T08:48:09.366Z,99758.97
2022-10-24T08:51:02.493Z,99748.69
2022-10-24T08:53:49.081Z,99790.59
2022-10-24T08:56:34.161Z,99772.41
2022-10-24T08:59:20.680Z,99784.53
2022-10-24T09:02:12.706Z,99773.75
2022-10-24T09:05:21.494Z,99788.41
2022-10-24T09:08:23.024Z,99819.31
2022-10-24T09:11:16.477Z,99787.41
2022-10-24T09:14:07.370Z,99827.66
2022-10-24T09:17:25.613Z,99798.19
2022-10-24T09:20:29.668Z,99790.66
2022-10-24T09:23:16.284Z,99803.13
2022-10-24T09:26:05.126Z,99797.19
2022-10-24T09:28:50.162Z,99810.56
2022-10-24T09:31:35.590Z,99795.63
2022-10-24T09:34:21.266Z,99794.69
2022-10-24T09:37:06.358Z,99798.22
2022-10-24T09:40:19.075Z,99821.22
2022-10-24T09:43:18.674Z,99795.69
2022-10-24T09:46:10.110Z,99811.38
2022-10-24T09:48:59.241Z,99833.53
2022-10-24T09:51:47.888Z,99855.28
2022-10-24T09:54:35.302Z,99861.63
2022-10-24T09:57:20.090Z,99855.38
2022-10-24T10:00:05.873Z,99836.91
2022-10-24T10:03:23.869Z,99851.09
2022-10-24T10:06:18.461Z,99867.69
2022-10-24T10:09:14.690Z,99844.06
2022-10-24T10:12:03.331Z,99833.41
2022-10-24T10:14:48.822Z,99845.94
2022-10-24T10:17:34.249Z,99861.53
2022-10-24T10:20:26.899Z,99873.00
2022-10-24T10:23:25.865Z,99875.66
2022-10-24T10:26:17.111Z,99886.97
2022-10-24T10:29:05.086Z,99871.91
2022-10-24T10:31:58.221Z,99877.97
2022-10-24T10:34:49.965Z,99883.22
2022-10-24T10:37:42.800Z,99900.78
2022-10-24T10:40:40.169Z,99901.56
2022-10-24T10:43:44.000Z,99914.78
2022-10-24T10:46:46.586Z,99918.09
2022-10-24T10:49:37.069Z,99920.78
2022-10-24T10:52:31.693Z,99926.94
2022-10-24T10:55:16.959Z,99933.03
2022-10-24T10:58:01.970Z,99943.59
2022-10-24T11:01:09.298Z,99947.97
2022-10-24T11:04:01.875Z,99933.16
2022-10-24T11:06:52.095Z,99925.31
2022-10-24T11:09:42.981Z,99927.13
2022-10-24T11:12:39.190Z,99938.53
2022-10-24T11:15:26.660Z,99933.16
2022-10-24T11:18:21.772Z,99949.75
2022-10-24T11:21:09.774Z,99941.78
2022-10-24T11:24:03.801Z,99949.53
2022-10-24T11:27:06.880Z,99939.88
2022-10-24T11:30:04.419Z,99938.22
2022-10-24T11:32:56.346Z,99956.63
2022-10-24T11:35:59.786Z,99970.50
2022-10-24T11:38:51.319Z,99971.69
2022-10-24T11:41:55.415Z,99948.16
2022-10-24T11:45:07.448Z,99964.72
2022-10-24T11:48:02.715Z,99963.06
2022-10-24T11:50:58.784Z,99946.69
2022-10-24T11:53:51.346Z,99963.50
2022-10-24T11:56:43.920Z,99985.19
2022-10-24T11:59:29.792Z,99992.88
2022-10-24T12:02:43.954Z,99971.78
2022-10-24T12:06:10.128Z,99933.34
2022-10-24T12:09:26.968Z,99948.25
2022-10-24T12:12:41.302Z,99943.09
2022-10-24T12:15:41.616Z,99924.78
2022-10-24T12:18:32.986Z,99946.72
2022-10-24T12:21:26.163Z,99964.38
2022-10-24T12:24:41.049Z,99996.13
2022-10-24T12:27:36.988Z,100003.19
2022-10-24T12:30:24.192Z,100009.28
2022-10-24T12:33:23.543Z,100004.16
2022-10-24T12:36:09.545Z,100051.59
2022-10-24T12:38:54.661Z,100058.22
2022-10-24T12:41:41.156Z,100074.09
2022-10-24T12:44:29.475Z,100087.34
2022-10-24T12:47:37.195Z,100078.50
2022-10-24T12:50:22.258Z,100077.59
2022-10-24T12:53:38.255Z,100057.47
2022-10-24T12:56:23.935Z,100050.38
2022-10-24T12:59:27.470Z,100033.66
2022-10-24T13:02:15.654Z,100000.19
2022-10-24T13:05:10.029Z,99971.97
2022-10-24T13:08:04.061Z,99984.28
2022-10-24T13:11:08.111Z,99957.00
2022-10-24T13:14:08.734Z,99956.16
2022-10-24T13:17:18.083Z,99947.41
2022-10-24T13:20:22.353Z,99952.63
2022-10-24T13:23:20.338Z,99954.56
2022-10-24T13:26:06.024Z,99950.94
2022-10-24T13:28:51.291Z,99976.31
2022-10-24T13:31:36.143Z,99953.84
2022-10-24T13:34:52.296Z,99970.44
2022-10-24T13:37:50.038Z,99976.59
2022-10-24T13:40:35.808Z,99981.88
2022-10-24T13:43:21.263Z,100001.97
2022-10-24T13:46:13.085Z,99997.66
2022-10-24T13:49:00.331Z,99998.34
2022-10-24T13:51:52.275Z,99989.53
2022-10-24T13:54:38.779Z,99991.31
2022-10-24T13:57:31.441Z,99983.38
2022-10-24T14:00:39.804Z,100000.94
2022-10-24T14:03:27.756Z,100016.59
2022-10-24T14:06:13.249Z,100005.25
2022-10-24T14:09:07.311Z,99992.84
2022-10-24T14:11:53.474Z,99979.66
2022-10-24T14:14:39.741Z,99994.34
2022-10-24T14:17:31.995Z,99983.16
2022-10-24T14:20:21.951Z,99984.13
2022-10-24T14:23:25.005Z,99988.53
2022-10-24T14:26:17.539Z,99993.81
2022-10-24T14:29:02.887Z,99997.47
2022-10-24T14:31:55.984Z,100007.19
2022-10-24T14:34:41.217Z,100007.06
2022-10-24T14:37:35.661Z,99997.47
2022-10-24T14:40:20.788Z,99992.19
2022-10-24T14:43:09.642Z,100001.91
2022-10-24T14:46:09.325Z,100018.50
2022-10-24T14:48:54.163Z,100015.94
2022-10-24T14:51:40.493Z,100025.53
2022-10-24T14:54:31.809Z,100030.63
2022-10-24T14:57:21.188Z,100006.81
2022-10-24T15:00:08.131Z,100012.22
2022-10-24T15:02:56.746Z,100023.72
2022-10-24T15:05:41.818Z,100039.44
2022-10-24T15:08:34.635Z,100028.03
2022-10-24T15:11:21.909Z,100042.03
2022-10-24T15:14:36.006Z,100034.16
2022-10-24T15:17:32.762Z,100044.59
2022-10-24T15:20:25.104Z,100039.50
2022-10-24T15:23:21.735Z,100051.75
2022-10-24T15:26:27.694Z,100059.66
2022-10-24T15:29:13.220Z,100056.19
2022-10-24T15:31:59.621Z,100059.75
2022-10-24T15:34:44.430Z,100063.28
2022-10-24T15:37:29.641Z,100074.78
2022-10-24T15:40:20.416Z,100089.53
2022-10-24T15:43:05.511Z,100094.81
2022-10-24T15:45:50.535Z,100126.38
2022-10-24T15:48:37.698Z,100148.59
2022-10-24T15:51:24.544Z,100150.69
2022-10-24T15:54:11.894Z,100148.25
2022-10-24T15:56:59.475Z,100159.66
2022-10-24T15:59:46.536Z,100173.66
2022-10-24T16:02:33.721Z,100179.97
2022-10-24T16:05:22.896Z,100173.03
2022-10-24T16:08:13.223Z,100177.44
2022-10-24T16:10:58.340Z,100160.06
2022-10-24T16:13:44.076Z,100162.72
2022-10-24T16:16:29.132Z,100173.19
2022-10-24T16:19:14.456Z,100183.63
2022-10-24T16:21:59.910Z,100195.69
2022-10-24T16:24:44.885Z,100181.88
2022-10-24T16:27:29.788Z,100187.09
2022-10-24T16:30:16.717Z,100193.22
2022-10-24T16:33:02.966Z,100195.88
2022-10-24T16:35:48.291Z,100203.72
2022-10-24T16:38:32.970Z,100199.41
2022-10-24T16:41:20.685Z,100205.53
2022-10-24T16:44:05.818Z,100213.34
2022-10-24T16:46:53.131Z,100215.97
2022-10-24T16:49:38.305Z,100205.56
2022-10-24T16:52:23.308Z,100210.75
2022-10-24T16:55:11.216Z,100215.13
2022-10-24T16:57:57.277Z,100225.53
2022-10-24T17:00:42.665Z,100225.56
2022-10-24T17:03:27.817Z,100216.00
2022-10-24T17:06:13.593Z,100217.75
2022-10-24T17:08:58.570Z,100220.38
2022-10-24T17:11:45.990Z,100223.81
2022-10-24T17:14:36.672Z,100228.16
2022-10-24T17:17:21.768Z,100229.09
2022-10-24T17:20:07.818Z,100242.06
2022-10-24T17:22:53.697Z,100228.19
2022-10-24T17:25:39.429Z,100233.41
2022-10-24T17:28:24.868Z,100234.28
2022-10-24T17:31:10.169Z,100243.81
2022-10-24T17:33:55.529Z,100252.47
2022-10-24T17:36:45.760Z,100246.41
2022-10-24T17:39:40.373Z,100247.25
2022-10-24T17:42:28.308Z,100239.50
2022-10-24T17:45:24.015Z,100249.88
2022-10-24T17:48:10.158Z,100243.81
2022-10-24T17:50:58.088Z,100243.84
2022-10-24T17:53:43.493Z,100246.44
2022-10-24T17:56:28.885Z,100244.69
2022-10-24T17:59:13.890Z,100249.00
2022-10-24T18:01:59.200Z,100244.69
2022-10-24T18:04:44.343Z,100247.28
2022-10-24T18:07:29.791Z,100247.28
2022-10-24T18:10:16.186Z,100238.63
2022-10-24T18:13:01.649Z,100252.50
2022-10-24T18:15:46.752Z,100255.06
2022-10-24T18:18:32.074Z,100261.13
2022-10-24T18:21:20.254Z,100263.72
2022-10-24T18:24:07.459Z,100268.94
2022-10-24T18:26:52.812Z,100261.97
2022-10-24T18:29:37.825Z,100259.38
2022-10-24T18:32:23.222Z,100268.06
2022-10-24T18:35:08.886Z,100275.00
2022-10-24T18:37:54.389Z,100275.00
2022-10-24T18:40:39.942Z,100270.66
2022-10-24T18:43:25.351Z,100274.13
2022-10-24T18:46:11.740Z,100300.13
2022-10-24T18:48:57.660Z,100294.03
2022-10-24T18:51:57.820Z,100294.03
2022-10-24T18:55:02.252Z,100301.84
2022-10-24T18:57:49.735Z,100302.69
2022-10-24T19:00:35.149Z,100291.47
2022-10-24T19:03:35.598Z,100302.72
2022-10-24T19:06:26.005Z,100300.97
2022-10-24T19:09:19.954Z,100302.72
2022-10-24T19:12:05.566Z,100297.53
2022-10-24T19:14:51.345Z,100301.84
2022-10-24T19:17:36.586Z,100304.44
2022-10-24T19:20:23.516Z,100304.44
2022-10-24T19:23:13.466Z,100306.16
2022-10-24T19:25:58.730Z,100316.53
2022-10-24T19:28:44.097Z,100309.63
2022-10-24T19:31:29.511Z,100327.78
2022-10-24T19:34:14.460Z,100315.69
2022-10-24T19:36:59.711Z,100330.38
2022-10-24T19:39:44.975Z,100319.16
2022-10-24T19:42:30.274Z,100317.41
2022-10-24T19:45:15.716Z,100310.50
2022-10-24T19:48:01.098Z,100314.81
2022-10-24T19:50:46.446Z,100297.50
2022-10-24T19:53:35.592Z,100300.94
2022-10-24T19:56:25.017Z,100299.22
2022-10-24T19:59:10.736Z,100296.59
2022-10-24T20:01:55.654Z,100294.91
2022-10-24T20:04:41.918Z,100288.84
2022-10-24T20:07:27.755Z,100288.84
2022-10-24T20:10:13.246Z,100294.91
2022-10-24T20:12:58.683Z,100292.31
2022-10-24T20:15:43.556Z,100302.72
2022-10-24T20:18:32.721Z,100309.66
2022-10-24T20:21:18.721Z,100319.13
2022-10-24T20:24:04.176Z,100320.88
2022-10-24T20:26:50.291Z,100319.13
2022-10-24T20:29:36.071Z,100314.78
2022-10-24T20:32:21.195Z,100321.69
2022-10-24T20:35:07.475Z,100326.06
2022-10-24T20:37:52.664Z,100326.00
2022-10-24T20:40:37.845Z,100333.81
2022-10-24T20:43:22.688Z,100336.38
2022-10-24T20:46:10.474Z,100332.06
2022-10-24T20:48:55.697Z,100339.81
2022-10-24T20:51:41.651Z,100349.34
2022-10-24T20:54:26.819Z,100353.66
2022-10-24T20:57:12.177Z,100351.03
2022-10-24T20:59:57.510Z,100352.75
2022-10-24T21:02:42.468Z,100354.50
2022-10-24T21:05:28.009Z,100353.63
2022-10-24T21:08:13.310Z,100355.38
2022-10-24T21:10:58.221Z,100355.38
2022-10-24T21:13:43.995Z,100357.94
2022-10-24T21:16:29.894Z,100351.88
2022-10-24T21:19:14.728Z,100352.72
2022-10-24T21:21:59.621Z,100350.09
2022-10-24T21:24:44.446Z,100361.31
2022-10-24T21:27:29.441Z,100369.09
2022-10-24T21:30:14.872Z,100377.75
2022-10-24T21:33:00.320Z,100374.25
2022-10-24T21:35:45.564Z,100390.66
2022-10-24T21:38:31.021Z,100396.69
2022-10-24T21:41:17.082Z,100401.88
2022-10-24T21:44:01.932Z,100404.50
2022-10-24T21:46:47.228Z,100403.63
2022-10-24T21:49:32.056Z,100400.16
2022-10-24T21:52:17.051Z,100394.97
2022-10-24T21:55:01.903Z,100412.25
2022-10-24T21:57:46.804Z,100403.66
2022-10-24T22:00:32.635Z,100416.66
2022-10-24T22:03:19.704Z,100408.88
2022-10-24T22:06:04.593Z,100411.47
2022-10-24T22:08:51.491Z,100404.59
2022-10-24T22:11:37.486Z,100407.16
2022-10-24T22:14:22.804Z,100411.50
2022-10-24T22:17:07.901Z,100410.69
2022-10-24T22:19:53.411Z,100410.69
2022-10-24T22:22:38.365Z,100409.00
2022-10-24T22:25:23.583Z,100415.91
2022-10-24T22:28:08.752Z,100414.16
2022-10-24T22:30:54.305Z,100410.75
2022-10-24T22:33:40.642Z,100411.66
2022-10-24T22:36:56.327Z,100416.00
2022-10-24T22:39:41.547Z,100410.81
2022-10-24T22:42:26.977Z,100409.09
2022-10-24T22:45:12.798Z,100406.50
2022-10-24T22:48:16.207Z,100416.03
2022-10-24T22:51:01.475Z,100411.72
2022-10-24T22:53:46.861Z,100404.78
2022-10-24T22:56:32.300Z,100406.56
2022-10-24T22:59:17.616Z,100399.59
2022-10-24T23:02:28.128Z,100408.25
2022-10-24T23:08:40.228Z,100417.72
2022-10-24T23:11:25.342Z,100421.19
2022-10-24T23:14:11.640Z,100420.34
2022-10-24T23:16:58.909Z,100426.41
2022-10-24T23:19:45.053Z,100441.16
2022-10-24T23:22:33.012Z,100439.41
2022-10-24T23:25:18.881Z,100446.31
2022-10-24T23:28:27.276Z,100444.59
2022-10-24T23:31:12.793Z,100454.94
2022-10-24T23:33:58.132Z,100459.25
2022-10-24T23:36:44.470Z,100460.16
2022-10-24T23:39:33.959Z,100462.75
2022-10-24T23:42:19.174Z,100466.16
2022-10-24T23:45:04.855Z,100465.28
2022-10-24T23:48:17.585Z,100473.13
2022-10-24T23:51:11.896Z,100473.09
2022-10-24T23:53:57.447Z,100470.47
2022-10-24T23:56:42.671Z,100473.97
2022-10-24T23:59:28.683Z,100467.94
